createdAt,value
2023-04-17T00:00:07.676Z,16.25
2023-04-17T00:02:39.831Z,15.88
2023-04-17T00:05:09.272Z,16.17
2023-04-17T00:07:39.381Z,15.86
2023-04-17T00:10:09.033Z,15.88
2023-04-17T00:12:37.068Z,15.89
2023-04-17T00:15:05.642Z,16.68
2023-04-17T00:17:33.390Z,16.22
2023-04-17T00:20:01.189Z,15.78
2023-04-17T00:22:28.935Z,16.48
2023-04-17T00:24:58.085Z,16.35
2023-04-17T00:27:54.620Z,17.10
2023-04-17T00:32:57.563Z,16.35
2023-04-17T00:35:25.509Z,15.44
2023-04-17T00:37:53.168Z,15.38
2023-04-17T00:40:22.244Z,15.54
2023-04-17T00:42:53.198Z,15.51
2023-04-17T00:45:21.636Z,15.43
2023-04-17T00:47:50.068Z,15.64
2023-04-17T00:50:18.169Z,15.18
2023-04-17T00:52:46.279Z,15.41
2023-04-17T00:55:15.097Z,15.34
2023-04-17T00:57:44.968Z,15.16
2023-04-17T01:00:13.930Z,15.46
2023-04-17T01:02:41.781Z,15.65
2023-04-17T01:05:10.256Z,15.40
2023-04-17T01:07:38.133Z,15.48
2023-04-17T01:10:06.706Z,15.52
2023-04-17T01:12:34.657Z,16.21
2023-04-17T01:15:03.784Z,15.12
2023-04-17T01:17:31.647Z,15.61
2023-04-17T01:19:59.396Z,15.61
2023-04-17T01:22:27.208Z,15.20
2023-04-17T01:24:56.369Z,15.79
2023-04-17T01:27:24.981Z,15.72
2023-04-17T01:29:52.718Z,15.59
2023-04-17T01:32:20.730Z,15.45
2023-04-17T01:34:48.429Z,15.13
2023-04-17T01:37:16.203Z,15.55
2023-04-17T01:39:43.877Z,15.01
2023-04-17T01:42:12.945Z,15.15
2023-04-17T01:44:40.722Z,15.49
2023-04-17T01:47:08.534Z,15.04
2023-04-17T01:49:36.279Z,15.28
2023-04-17T01:52:03.951Z,14.94
2023-04-17T01:54:31.677Z,14.94
2023-04-17T01:56:59.584Z,15.25
2023-04-17T01:59:28.867Z,14.92
2023-04-17T02:01:56.693Z,15.37
2023-04-17T02:04:24.599Z,15.04
2023-04-17T02:06:52.405Z,14.87
2023-04-17T02:09:20.376Z,15.24
2023-04-17T02:11:48.032Z,15.27
2023-04-17T02:14:16.371Z,15.14
2023-04-17T02:16:46.234Z,15.23
2023-04-17T02:19:14.281Z,15.51
2023-04-17T02:21:42.219Z,15.42
2023-04-17T02:24:10.110Z,15.71
2023-04-17T02:26:37.913Z,15.28
2023-04-17T02:29:05.614Z,15.25
2023-04-17T02:31:33.544Z,15.21
2023-04-17T02:34:02.986Z,14.80
2023-04-17T02:36:30.714Z,14.93
2023-04-17T02:38:58.664Z,15.40
2023-04-17T02:41:26.372Z,15.36
2023-04-17T02:43:54.080Z,15.10
2023-04-17T02:46:21.830Z,15.19
2023-04-17T02:48:49.860Z,15.11
2023-04-17T02:51:18.940Z,15.23
2023-04-17T02:53:46.949Z,15.09
2023-04-17T02:56:14.666Z,15.05
2023-04-17T02:58:44.469Z,15.11
2023-04-17T03:01:12.226Z,15.43
2023-04-17T03:03:42.315Z,15.36
2023-04-17T03:06:10.864Z,15.70
2023-04-17T03:08:39.951Z,15.49
2023-04-17T03:11:07.768Z,14.99
2023-04-17T03:13:36.746Z,14.78
2023-04-17T03:16:05.690Z,15.73
2023-04-17T03:18:33.475Z,15.65
2023-04-17T03:21:01.164Z,14.96
2023-04-17T03:23:28.987Z,14.81
2023-04-17T03:25:58.061Z,15.07
2023-04-17T03:28:25.904Z,15.02
2023-04-17T03:30:54.987Z,15.21
2023-04-17T03:33:22.676Z,15.32
2023-04-17T03:35:50.358Z,15.47
2023-04-17T03:38:18.082Z,15.33
2023-04-17T03:40:45.829Z,14.97
2023-04-17T03:43:15.031Z,15.76
2023-04-17T03:45:42.695Z,15.16
2023-04-17T03:48:10.404Z,14.86
2023-04-17T03:50:38.387Z,14.85
2023-04-17T03:53:06.296Z,14.61
2023-04-17T03:55:34.228Z,13.77
2023-04-17T03:58:02.053Z,14.56
2023-04-17T04:00:31.721Z,14.32
2023-04-17T04:02:59.607Z,13.98
2023-04-17T04:05:27.710Z,14.81
2023-04-17T04:07:55.511Z,14.44
2023-04-17T04:10:23.242Z,14.12
2023-04-17T04:12:51.054Z,14.37
2023-04-17T04:15:18.717Z,14.37
2023-04-17T04:17:47.902Z,14.83
2023-04-17T04:20:15.720Z,14.59
2023-04-17T04:22:44.921Z,14.32
2023-04-17T04:25:13.087Z,14.91
2023-04-17T04:27:45.620Z,14.82
2023-04-17T04:30:14.310Z,14.70
2023-04-17T04:32:42.022Z,14.56
2023-04-17T04:35:11.458Z,14.93
2023-04-17T04:37:42.862Z,14.42
2023-04-17T04:40:11.531Z,14.71
2023-04-17T04:42:40.073Z,14.13
2023-04-17T04:45:08.658Z,13.89
2023-04-17T04:47:36.734Z,14.00
2023-04-17T04:50:04.700Z,14.06
2023-04-17T04:52:33.858Z,14.41
2023-04-17T04:55:01.884Z,14.31
2023-04-17T04:57:29.636Z,14.12
2023-04-17T04:59:57.483Z,14.40
2023-04-17T05:02:25.377Z,14.15
2023-04-17T05:04:53.426Z,14.23
2023-04-17T05:07:21.271Z,14.44
2023-04-17T05:09:50.352Z,14.79
2023-04-17T05:12:18.218Z,14.14
2023-04-17T05:14:45.906Z,14.72
2023-04-17T05:17:13.900Z,14.93
2023-04-17T05:19:41.714Z,14.24
2023-04-17T05:22:09.405Z,14.13
2023-04-17T05:24:37.076Z,14.61
2023-04-17T05:27:06.482Z,15.14
2023-04-17T05:29:34.144Z,14.65
2023-04-17T05:32:01.968Z,14.81
2023-04-17T05:34:29.956Z,15.16
2023-04-17T05:37:24.091Z,15.08
2023-04-17T05:39:51.776Z,14.21
2023-04-17T05:42:20.885Z,14.42
2023-04-17T05:44:48.587Z,14.20
2023-04-17T05:47:16.410Z,14.80
2023-04-17T05:49:44.651Z,14.35
2023-04-17T05:52:12.664Z,15.00
2023-04-17T05:54:40.404Z,14.32
2023-04-17T05:57:08.263Z,15.44
2023-04-17T05:59:37.563Z,15.04
2023-04-17T06:02:05.374Z,15.10
2023-04-17T06:04:33.313Z,14.33
2023-04-17T06:07:02.557Z,14.67
2023-04-17T06:09:30.398Z,15.07
2023-04-17T06:11:58.168Z,14.97
2023-04-17T06:14:25.939Z,15.02
2023-04-17T06:16:55.342Z,14.93
2023-04-17T06:19:24.216Z,15.30
2023-04-17T06:21:51.953Z,15.48
2023-04-17T06:24:19.836Z,15.62
2023-04-17T06:26:47.609Z,14.74
2023-04-17T06:29:15.836Z,15.91
2023-04-17T06:31:43.649Z,15.85
2023-04-17T06:34:12.833Z,15.44
2023-04-17T06:36:41.189Z,16.11
2023-04-17T06:39:08.895Z,16.17
2023-04-17T06:41:37.090Z,15.87
2023-04-17T06:44:05.181Z,16.18
2023-04-17T06:46:33.010Z,15.50
2023-04-17T06:49:01.951Z,15.73
2023-04-17T06:51:31.205Z,16.48
2023-04-17T06:53:59.374Z,16.28
2023-04-17T06:56:27.177Z,15.82
2023-04-17T06:58:55.233Z,15.45
2023-04-17T07:01:23.208Z,15.59
2023-04-17T07:03:56.857Z,15.58
2023-04-17T07:06:24.898Z,15.98
2023-04-17T07:08:55.633Z,15.82
2023-04-17T07:11:23.444Z,15.98
2023-04-17T07:13:51.668Z,16.17
2023-04-17T07:16:19.408Z,16.63
2023-04-17T07:18:47.665Z,16.61
2023-04-17T07:21:15.585Z,16.61
2023-04-17T07:23:43.292Z,16.02
2023-04-17T07:26:13.512Z,16.42
2023-04-17T07:28:41.309Z,16.61
2023-04-17T07:31:09.340Z,17.14
2023-04-17T07:33:40.065Z,16.48
2023-04-17T07:36:11.403Z,16.65
2023-04-17T07:38:40.927Z,16.97
2023-04-17T07:41:08.822Z,16.47
2023-04-17T07:43:37.920Z,17.06
2023-04-17T07:46:05.934Z,17.40
2023-04-17T07:48:33.736Z,17.31
2023-04-17T07:51:02.635Z,17.95
2023-04-17T07:53:30.352Z,17.22
2023-04-17T07:55:58.360Z,17.88
2023-04-17T07:58:27.105Z,16.93
2023-04-17T08:00:56.367Z,18.20
2023-04-17T08:03:24.437Z,18.52
2023-04-17T08:05:54.137Z,18.87
2023-04-17T08:08:23.707Z,17.66
2023-04-17T08:10:52.234Z,18.21
2023-04-17T08:13:20.322Z,18.16
2023-04-17T08:15:48.035Z,18.27
2023-04-17T08:18:17.306Z,18.26
2023-04-17T08:20:45.109Z,18.10
2023-04-17T08:23:12.856Z,18.67
2023-04-17T08:25:40.701Z,18.87
2023-04-17T08:28:08.931Z,18.34
2023-04-17T08:30:36.718Z,18.63
2023-04-17T08:33:04.584Z,18.38
2023-04-17T08:35:33.949Z,17.68
2023-04-17T08:38:01.681Z,17.97
2023-04-17T08:40:30.032Z,18.08
2023-04-17T08:42:57.726Z,17.98
2023-04-17T08:45:25.780Z,18.38
2023-04-17T08:47:53.594Z,19.35
2023-04-17T08:50:22.182Z,19.13
2023-04-17T08:52:52.794Z,19.35
2023-04-17T08:55:22.426Z,18.32
2023-04-17T08:58:01.004Z,18.03
2023-04-17T09:00:29.767Z,19.07
2023-04-17T09:02:58.921Z,19.01
2023-04-17T09:05:33.317Z,20.12
2023-04-17T09:08:24.828Z,19.56
2023-04-17T09:10:53.765Z,18.93
2023-04-17T09:13:24.320Z,19.66
2023-04-17T09:16:05.771Z,19.17
2023-04-17T09:18:41.011Z,19.32
2023-04-17T09:21:08.919Z,19.31
2023-04-17T09:23:49.665Z,19.75
2023-04-17T09:26:18.964Z,18.67
2023-04-17T09:29:04.205Z,19.19
2023-04-17T09:31:34.599Z,17.95
2023-04-17T09:34:03.753Z,19.75
2023-04-17T09:36:33.142Z,19.63
2023-04-17T09:39:04.647Z,19.95
2023-04-17T09:41:34.425Z,20.53
2023-04-17T09:44:06.514Z,19.47
2023-04-17T09:46:37.994Z,19.58
2023-04-17T09:49:11.089Z,19.89
2023-04-17T09:51:38.821Z,19.77
2023-04-17T09:54:09.362Z,19.58
2023-04-17T09:56:37.935Z,19.53
2023-04-17T09:59:06.959Z,18.89
2023-04-17T10:04:49.705Z,19.90
2023-04-17T10:07:18.827Z,19.18
2023-04-17T10:09:48.155Z,20.75
2023-04-17T10:12:19.276Z,20.05
2023-04-17T10:14:48.867Z,19.43
2023-04-17T10:17:28.619Z,19.98
2023-04-17T10:19:56.677Z,20.51
2023-04-17T10:22:31.419Z,20.69
2023-04-17T10:25:20.037Z,19.75
2023-04-17T10:27:51.078Z,20.81
2023-04-17T10:33:21.985Z,20.36
2023-04-17T10:35:50.484Z,20.74
2023-04-17T10:38:32.048Z,21.22
2023-04-17T10:41:02.922Z,20.89
2023-04-17T10:43:30.765Z,22.05
2023-04-17T10:46:02.886Z,21.26
2023-04-17T10:48:33.340Z,21.61
2023-04-17T10:51:01.899Z,21.10
2023-04-17T10:53:44.249Z,20.78
2023-04-17T10:56:19.297Z,20.05
2023-04-17T10:58:58.426Z,20.30
2023-04-17T11:01:28.956Z,20.24
2023-04-17T11:03:57.047Z,20.12
2023-04-17T11:06:28.877Z,20.58
2023-04-17T11:08:57.936Z,21.13
2023-04-17T11:11:42.958Z,20.28
2023-04-17T11:14:14.671Z,21.27
2023-04-17T11:16:44.249Z,21.10
2023-04-17T11:19:27.485Z,21.51
2023-04-17T11:21:57.502Z,21.14
2023-04-17T11:24:25.634Z,21.28
2023-04-17T11:26:55.444Z,19.73
2023-04-17T11:29:24.628Z,21.14
2023-04-17T11:32:13.843Z,21.49
2023-04-17T11:34:42.558Z,21.50
2023-04-17T11:37:14.930Z,21.68
2023-04-17T11:39:43.784Z,20.76
2023-04-17T11:42:12.946Z,21.42
2023-04-17T11:44:44.383Z,21.82
2023-04-17T11:47:13.736Z,22.83
2023-04-17T11:49:41.998Z,22.61
2023-04-17T11:52:09.644Z,22.07
2023-04-17T11:54:38.239Z,22.45
2023-04-17T11:57:07.598Z,23.40
2023-04-17T11:59:38.169Z,24.43
2023-04-17T12:02:07.979Z,23.33
2023-04-17T12:04:37.125Z,22.54
2023-04-17T12:07:13.200Z,22.74
2023-04-17T12:09:40.989Z,23.35
2023-04-17T12:12:09.377Z,23.33
2023-04-17T12:14:38.570Z,22.98
2023-04-17T12:17:06.307Z,22.08
2023-04-17T12:19:33.967Z,23.90
2023-04-17T12:22:01.595Z,24.24
2023-04-17T12:24:29.335Z,24.05
2023-04-17T12:26:58.649Z,22.36
2023-04-17T12:29:40.494Z,21.91
2023-04-17T12:32:12.973Z,22.85
2023-04-17T12:34:41.250Z,22.52
2023-04-17T12:37:09.084Z,22.60
2023-04-17T12:39:36.794Z,21.71
2023-04-17T12:42:29.619Z,20.88
2023-04-17T12:44:59.488Z,23.49
2023-04-17T12:47:28.817Z,23.00
2023-04-17T12:49:56.753Z,22.90
2023-04-17T12:52:24.543Z,24.38
2023-04-17T12:54:54.472Z,26.35
2023-04-17T12:57:22.574Z,24.57
2023-04-17T12:59:50.258Z,23.26
2023-04-17T13:02:19.110Z,26.44
2023-04-17T13:04:49.805Z,26.77
2023-04-17T13:07:19.594Z,27.43
2023-04-17T13:09:47.502Z,26.95
2023-04-17T13:12:15.591Z,25.22
2023-04-17T13:14:43.489Z,22.25
2023-04-17T13:17:11.223Z,22.12
2023-04-17T13:19:40.076Z,21.63
2023-04-17T13:22:09.346Z,22.73
2023-04-17T13:27:12.394Z,25.02
2023-04-17T13:29:40.721Z,25.00
2023-04-17T13:32:08.451Z,25.61
2023-04-17T13:34:42.208Z,26.78
2023-04-17T13:37:11.251Z,25.31
2023-04-17T13:39:39.535Z,25.45
2023-04-17T13:42:07.297Z,26.62
2023-04-17T13:44:35.473Z,28.26
2023-04-17T13:47:03.879Z,28.34
2023-04-17T13:49:31.635Z,27.28
2023-04-17T13:51:59.412Z,24.29
2023-04-17T13:54:28.450Z,22.81
2023-04-17T13:56:57.407Z,22.77
2023-04-17T13:59:25.430Z,21.73
2023-04-17T14:01:53.636Z,24.25
2023-04-17T14:04:40.156Z,24.62
2023-04-17T14:07:08.034Z,24.11
2023-04-17T14:09:37.336Z,23.62
2023-04-17T14:12:05.413Z,21.33
2023-04-17T14:14:33.156Z,20.55
2023-04-17T14:17:01.369Z,20.82
2023-04-17T14:19:29.034Z,20.22
2023-04-17T14:21:59.903Z,20.03
2023-04-17T14:24:40.405Z,21.36
2023-04-17T14:27:08.181Z,22.92
2023-04-17T14:29:39.013Z,25.23
2023-04-17T14:32:07.111Z,26.51
2023-04-17T14:34:34.994Z,26.79
2023-04-17T14:37:02.899Z,27.91
2023-04-17T14:39:31.629Z,26.84
2023-04-17T14:42:02.218Z,27.05
2023-04-17T14:44:30.198Z,27.36
2023-04-17T14:46:58.379Z,27.25
2023-04-17T14:49:26.323Z,25.63
2023-04-17T14:51:54.334Z,26.57
2023-04-17T14:54:22.165Z,27.07
2023-04-17T14:56:50.277Z,27.57
2023-04-17T14:59:19.945Z,28.51
2023-04-17T15:01:47.836Z,24.42
2023-04-17T15:04:16.298Z,23.88
2023-04-17T15:06:44.096Z,22.52
2023-04-17T15:09:12.225Z,22.88
2023-04-17T15:11:40.502Z,22.11
2023-04-17T15:14:08.411Z,21.75
2023-04-17T15:16:37.657Z,24.86
2023-04-17T15:19:06.150Z,26.98
2023-04-17T15:21:33.847Z,26.39
2023-04-17T15:24:01.750Z,27.36
2023-04-17T15:26:33.270Z,25.89
2023-04-17T15:29:01.688Z,24.91
2023-04-17T15:31:29.612Z,25.57
2023-04-17T15:33:58.995Z,27.19
2023-04-17T15:36:31.291Z,27.71
2023-04-17T15:38:59.166Z,28.74
2023-04-17T15:41:26.905Z,27.39
2023-04-17T15:44:24.981Z,28.49
2023-04-17T15:46:52.772Z,26.41
2023-04-17T15:49:22.506Z,25.23
2023-04-17T15:51:50.278Z,28.68
2023-04-17T15:54:18.429Z,28.25
2023-04-17T15:56:46.678Z,27.46
2023-04-17T15:59:14.851Z,28.32
2023-04-17T16:01:42.989Z,28.28
2023-04-17T16:04:11.595Z,29.46
2023-04-17T16:06:40.829Z,28.29
2023-04-17T16:09:20.101Z,27.97
2023-04-17T16:11:48.531Z,29.40
2023-04-17T16:14:16.412Z,28.60
2023-04-17T16:16:44.179Z,28.20
2023-04-17T16:19:12.377Z,29.47
2023-04-17T16:21:41.665Z,28.25
2023-04-17T16:24:09.373Z,27.63
2023-04-17T16:26:37.834Z,26.97
2023-04-17T16:29:05.510Z,25.52
2023-04-17T16:31:33.508Z,25.62
2023-04-17T16:34:02.537Z,25.61
2023-04-17T16:36:33.158Z,25.18
2023-04-17T16:39:03.776Z,25.80
2023-04-17T16:41:31.531Z,22.48
2023-04-17T16:43:59.184Z,21.59
2023-04-17T16:49:12.350Z,21.79
2023-04-17T16:51:40.379Z,21.87
2023-04-17T16:54:10.112Z,23.11
2023-04-17T16:56:37.988Z,22.68
2023-04-17T16:59:05.836Z,21.56
2023-04-17T17:01:33.597Z,22.61
2023-04-17T17:04:01.437Z,22.32
2023-04-17T17:06:29.740Z,22.70
2023-04-17T17:08:59.577Z,22.59
2023-04-17T17:11:28.790Z,21.83
2023-04-17T17:13:57.815Z,22.40
2023-04-17T17:16:25.691Z,21.04
2023-04-17T17:18:53.419Z,20.54
2023-04-17T17:21:21.575Z,20.80
2023-04-17T17:23:49.656Z,20.53
2023-04-17T17:26:18.225Z,20.69
2023-04-17T17:28:53.237Z,20.67
2023-04-17T17:31:21.784Z,19.79
2023-04-17T17:33:50.286Z,19.49
2023-04-17T17:36:18.240Z,19.54
2023-04-17T17:38:46.244Z,19.35
2023-04-17T17:41:14.256Z,19.50
2023-04-17T17:43:42.337Z,19.17
2023-04-17T17:46:11.628Z,19.32
2023-04-17T17:48:39.456Z,19.10
2023-04-17T17:51:07.513Z,19.53
2023-04-17T17:53:35.508Z,19.27
2023-04-17T17:56:03.412Z,18.75
2023-04-17T17:58:31.178Z,18.49
2023-04-17T18:00:58.892Z,18.72
2023-04-17T18:03:28.308Z,18.17
2023-04-17T18:05:56.135Z,18.35
2023-04-17T18:08:24.039Z,18.77
2023-04-17T18:10:51.782Z,18.96
2023-04-17T18:13:19.616Z,19.22
2023-04-17T18:15:47.340Z,19.47
2023-04-17T18:18:15.183Z,19.38
2023-04-17T18:20:44.734Z,19.20
2023-04-17T18:23:12.573Z,18.85
2023-04-17T18:25:40.774Z,18.27
2023-04-17T18:28:08.721Z,18.51
2023-04-17T18:30:36.802Z,18.63
2023-04-17T18:33:05.452Z,18.58
2023-04-17T18:35:33.364Z,18.02
2023-04-17T18:38:02.686Z,18.11
2023-04-17T18:40:30.751Z,17.35
2023-04-17T18:42:58.486Z,17.08
2023-04-17T18:45:26.337Z,17.64
2023-04-17T18:47:54.362Z,17.60
2023-04-17T18:50:22.230Z,17.11
2023-04-17T18:52:51.260Z,17.01
2023-04-17T18:55:20.679Z,16.81
2023-04-17T18:57:48.441Z,17.69
2023-04-17T19:00:16.639Z,17.68
2023-04-17T19:02:44.461Z,17.49
2023-04-17T19:05:12.434Z,17.45
2023-04-17T19:07:40.134Z,17.54
2023-04-17T19:10:08.815Z,16.37
2023-04-17T19:12:37.909Z,16.98
2023-04-17T19:15:06.593Z,16.66
2023-04-17T19:17:34.555Z,15.84
2023-04-17T19:20:02.301Z,16.20
2023-04-17T19:22:30.124Z,15.78
2023-04-17T19:24:58.100Z,15.82
2023-04-17T19:27:27.042Z,15.76
2023-04-17T19:29:57.957Z,16.06
2023-04-17T19:32:25.939Z,15.97
2023-04-17T19:34:53.734Z,15.69
2023-04-17T19:37:21.423Z,15.34
2023-04-17T19:39:49.101Z,15.46
2023-04-17T19:42:16.814Z,15.42
2023-04-17T19:44:44.560Z,15.37
2023-04-17T19:47:14.134Z,15.58
2023-04-17T19:49:41.828Z,15.26
2023-04-17T19:52:09.581Z,15.56
2023-04-17T19:54:37.301Z,15.51
2023-04-17T19:57:05.029Z,15.25
2023-04-17T19:59:33.293Z,15.26
2023-04-17T20:02:01.031Z,15.33
2023-04-17T20:04:30.368Z,16.01
2023-04-17T20:06:58.921Z,15.36
2023-04-17T20:09:26.619Z,14.74
2023-04-17T20:11:54.288Z,15.00
2023-04-17T20:14:22.336Z,14.45
2023-04-17T20:16:50.207Z,15.14
2023-04-17T20:19:18.173Z,14.67
2023-04-17T20:21:47.982Z,14.98
2023-04-17T20:24:16.607Z,14.74
2023-04-17T20:26:45.623Z,14.73
2023-04-17T20:29:22.653Z,14.95
2023-04-17T20:31:52.304Z,15.83
2023-04-17T20:34:20.445Z,15.14
2023-04-17T20:36:49.617Z,14.99
2023-04-17T20:39:17.656Z,15.13
2023-04-17T20:41:45.393Z,15.22
2023-04-17T20:44:13.150Z,15.10
2023-04-17T20:46:41.263Z,14.45
2023-04-17T20:49:08.956Z,14.80
2023-04-17T20:51:36.941Z,14.19
2023-04-17T20:54:06.020Z,13.74
2023-04-17T20:56:33.712Z,13.98
2023-04-17T20:59:01.370Z,14.49
2023-04-17T21:01:29.032Z,14.49
2023-04-17T21:03:56.793Z,14.43
2023-04-17T21:06:24.549Z,14.03
2023-04-17T21:08:52.424Z,14.63
2023-04-17T21:11:21.765Z,14.10
2023-04-17T21:13:49.822Z,14.42
2023-04-17T21:16:17.545Z,14.27
2023-04-17T21:18:46.009Z,14.00
2023-04-17T21:21:13.708Z,14.14
2023-04-17T21:23:41.330Z,13.74
2023-04-17T21:26:09.396Z,13.93
2023-04-17T21:28:39.058Z,13.33
2023-04-17T21:31:10.281Z,13.79
2023-04-17T21:33:38.125Z,13.50
2023-04-17T21:36:06.488Z,13.79
2023-04-17T21:38:34.221Z,13.92
2023-04-17T21:41:02.235Z,13.69
2023-04-17T21:43:31.297Z,13.35
2023-04-17T21:46:00.670Z,13.55
2023-04-17T21:48:28.916Z,13.29
2023-04-17T21:51:02.448Z,12.75
2023-04-17T21:53:30.153Z,13.36
2023-04-17T21:55:57.899Z,13.23
2023-04-17T21:58:25.613Z,13.13
2023-04-17T22:00:53.627Z,12.68
2023-04-17T22:03:23.441Z,13.23
2023-04-17T22:05:53.302Z,12.83
2023-04-17T22:08:21.045Z,13.43
2023-04-17T22:10:48.765Z,12.54
2023-04-17T22:13:16.540Z,13.53
2023-04-17T22:15:44.693Z,13.11
2023-04-17T22:18:12.331Z,13.11
2023-04-17T22:20:41.409Z,13.12
2023-04-17T22:23:09.046Z,12.95
2023-04-17T22:25:36.745Z,13.43
2023-04-17T22:28:04.405Z,13.15
2023-04-17T22:30:31.998Z,12.99
2023-04-17T22:32:59.745Z,12.90
2023-04-17T22:35:28.084Z,12.84
2023-04-17T22:37:57.170Z,12.93
2023-04-17T22:40:24.797Z,12.36
2023-04-17T22:42:52.511Z,12.71
2023-04-17T22:45:20.135Z,13.24
2023-04-17T22:47:47.851Z,13.00
2023-04-17T22:50:15.550Z,12.61
2023-04-17T22:52:43.204Z,12.70
2023-04-17T22:55:12.419Z,12.25
2023-04-17T22:57:40.081Z,13.01
2023-04-17T23:00:10.054Z,12.79
2023-04-17T23:02:37.906Z,12.47
2023-04-17T23:05:06.573Z,12.73
2023-04-17T23:07:34.332Z,12.56
2023-04-17T23:10:01.974Z,12.61
2023-04-17T23:12:32.435Z,12.31
2023-04-17T23:15:00.146Z,11.99
2023-04-17T23:17:27.802Z,12.87
2023-04-17T23:19:55.695Z,12.66
2023-04-17T23:22:23.410Z,12.50
2023-04-17T23:24:51.106Z,12.55
2023-04-17T23:27:18.803Z,12.56
2023-04-17T23:29:47.834Z,12.28
2023-04-17T23:32:16.288Z,12.04
2023-04-17T23:34:43.922Z,11.88
2023-04-17T23:37:11.937Z,12.16
2023-04-17T23:39:39.737Z,12.32
2023-04-17T23:42:08.156Z,12.63
2023-04-17T23:44:35.865Z,12.36
2023-04-17T23:47:06.217Z,12.53
2023-04-17T23:49:34.699Z,11.94
2023-04-17T23:52:02.500Z,12.47
2023-04-17T23:54:30.324Z,12.04
2023-04-17T23:56:58.090Z,12.09
